Time;durP1;ratioP1;P1;durP2;ratioP2;P2;SDS_P1;SDS_P2;PMS_P1;PMS_P2;Temp;Humidity;BMP_temperature;BMP_pressure;BME280_temperature;BME280_humidity;BME280_pressure;Samples;Min_cycle;Max_cycle;Signal;HPM_P1;HPM_P2
2023/09/11 00:00:41;;;;;;;24.23;17.30;;;21.60;99.90;;;;;;6247728;22;20015;-84
2023/09/11 00:03:07;;;;;;;17.05;14.25;;;21.60;99.90;;;;;;6247144;22;20022;-84
2023/09/11 00:05:33;;;;;;;25.45;19.05;;;21.60;99.90;;;;;;6273017;22;20015;-85
2023/09/11 00:07:58;;;;;;;17.75;15.05;;;21.60;99.90;;;;;;6272899;22;20019;-84
2023/09/11 00:10:24;;;;;;;19.27;15.38;;;21.50;99.90;;;;;;6302962;22;20019;-85
2023/09/11 00:12:50;;;;;;;16.42;13.70;;;21.50;99.90;;;;;;6274956;22;20019;-84
2023/09/11 00:15:15;;;;;;;19.88;15.75;;;21.50;99.90;;;;;;6249587;22;20461;-85
2023/09/11 00:17:41;;;;;;;21.15;15.48;;;21.50;99.90;;;;;;6275123;22;20046;-85
2023/09/11 00:20:10;;;;;;;19.13;16.27;;;21.50;99.90;;;;;;6274217;22;20019;-85
2023/09/11 00:22:36;;;;;;;18.30;15.15;;;21.50;99.90;;;;;;6274320;22;20015;-84
2023/09/11 00:25:02;;;;;;;15.40;13.80;;;21.50;99.90;;;;;;6274407;22;20065;-85
2023/09/11 00:27:28;;;;;;;22.13;13.25;;;21.40;99.90;;;;;;6302570;22;20015;-84
2023/09/11 00:29:54;;;;;;;21.80;15.93;;;21.40;99.90;;;;;;6301828;22;20137;-84
2023/09/11 00:32:20;;;;;;;25.25;15.15;;;21.40;99.90;;;;;;6274839;22;20035;-84
2023/09/11 00:34:45;;;;;;;18.50;13.90;;;21.30;99.90;;;;;;6248301;22;20382;-85
2023/09/11 00:37:11;;;;;;;22.20;15.48;;;21.40;99.90;;;;;;6274715;22;20038;-84
2023/09/11 00:39:37;;;;;;;22.92;15.27;;;21.40;99.90;;;;;;6249409;22;20076;-84
2023/09/11 00:42:03;;;;;;;23.10;15.00;;;21.30;99.90;;;;;;6274539;22;20015;-84
2023/09/11 00:44:29;;;;;;;22.60;16.20;;;21.30;99.90;;;;;;6248627;22;20015;-84
2023/09/11 00:46:56;;;;;;;21.42;14.50;;;21.30;99.90;;;;;;6274374;22;20015;-84
2023/09/11 00:49:22;;;;;;;20.63;15.43;;;21.20;99.90;;;;;;6273726;22;20015;-84
2023/09/11 00:51:50;;;;;;;23.00;14.88;;;21.20;99.90;;;;;;6273658;22;20343;-84
2023/09/11 00:54:18;;;;;;;18.67;13.35;;;21.20;99.90;;;;;;6248631;22;20015;-84
2023/09/11 00:56:46;;;;;;;19.60;15.23;;;21.10;99.90;;;;;;6249039;22;20488;-84
2023/09/11 00:59:13;;;;;;;21.08;14.55;;;21.10;99.90;;;;;;6301881;22;20003;-85
2023/09/11 01:01:42;;;;;;;19.05;14.13;;;21.20;99.90;;;;;;6274652;22;20050;-84
2023/09/11 01:04:08;;;;;;;23.60;15.30;;;21.10;99.90;;;;;;6247573;22;20078;-84
2023/09/11 01:06:34;;;;;;;26.48;16.20;;;21.10;99.90;;;;;;6301893;22;20019;-84
2023/09/11 01:09:02;;;;;;;23.17;15.90;;;21.00;99.90;;;;;;6247444;22;20320;-83
2023/09/11 01:11:27;;;;;;;24.98;15.43;;;21.00;99.90;;;;;;6275153;22;20011;-84
2023/09/11 01:13:54;;;;;;;25.10;17.33;;;21.10;99.90;;;;;;6273841;22;20007;-84
2023/09/11 01:16:26;;;;;;;21.30;15.52;;;20.90;99.90;;;;;;6247809;22;20012;-84
2023/09/11 01:19:26;;;;;;;20.48;13.85;;;20.90;99.90;;;;;;6300655;22;20043;-83
2023/09/11 01:21:55;;;;;;;23.55;16.38;;;20.80;99.90;;;;;;6272273;22;20438;-84
2023/09/11 01:24:30;;;;;;;25.33;17.00;;;20.80;99.90;;;;;;6301903;22;20450;-84
2023/09/11 01:27:09;;;;;;;22.63;15.32;;;20.80;99.90;;;;;;6273904;22;20027;-84
2023/09/11 01:29:38;;;;;;;27.80;16.13;;;20.80;99.90;;;;;;6274525;22;20015;-84
2023/09/11 01:32:07;;;;;;;19.35;12.98;;;20.70;99.90;;;;;;6247276;22;20428;-84
2023/09/11 01:34:33;;;;;;;17.15;13.75;;;20.70;99.90;;;;;;6249047;22;20022;-84
2023/09/11 01:36:59;;;;;;;24.70;15.27;;;20.70;99.90;;;;;;6247689;22;20015;-83
2023/09/11 01:39:24;;;;;;;22.65;15.80;;;20.70;99.90;;;;;;6274016;22;20015;-83
2023/09/11 01:41:58;;;;;;;20.52;16.27;;;20.60;99.90;;;;;;6248218;22;20177;-84
2023/09/11 01:44:44;;;;;;;24.95;16.17;;;20.60;99.90;;;;;;6274207;22;20141;-83
2023/09/11 01:47:17;;;;;;;22.05;15.55;;;20.60;99.90;;;;;;6301073;22;20011;-83
2023/09/11 01:49:44;;;;;;;26.73;16.20;;;20.50;99.90;;;;;;6272827;22;20579;-84
2023/09/11 01:52:11;;;;;;;21.70;16.70;;;20.50;99.90;;;;;;6248365;22;20148;-83
2023/09/11 01:54:37;;;;;;;21.10;16.52;;;20.50;99.90;;;;;;6301287;22;20011;-83
2023/09/11 01:57:05;;;;;;;21.55;14.70;;;20.50;99.90;;;;;;6301589;22;20424;-83
2023/09/11 01:59:34;;;;;;;19.98;14.00;;;20.50;99.90;;;;;;6247926;22;20061;-84
2023/09/11 02:02:00;;;;;;;15.30;12.50;;;20.50;99.90;;;;;;6247441;22;20021;-83
2023/09/11 02:04:25;;;;;;;16.45;10.60;;;20.50;99.90;;;;;;6274531;22;20046;-84
2023/09/11 02:06:51;;;;;;;16.77;12.60;;;20.50;99.90;;;;;;6273220;22;20046;-83
2023/09/11 02:09:17;;;;;;;22.17;15.38;;;20.40;99.90;;;;;;6274314;22;20387;-83
2023/09/11 02:11:43;;;;;;;22.92;14.43;;;20.40;99.90;;;;;;6274501;22;20019;-84
2023/09/11 02:14:09;;;;;;;15.95;12.18;;;20.40;99.90;;;;;;6248606;22;20038;-83
2023/09/11 02:16:34;;;;;;;21.88;15.45;;;20.40;99.90;;;;;;6248499;22;20023;-83
2023/09/11 02:19:00;;;;;;;26.95;15.38;;;20.40;99.90;;;;;;6273948;22;20007;-84
2023/09/11 02:21:25;;;;;;;21.13;14.45;;;20.40;99.90;;;;;;6273522;22;20339;-83
2023/09/11 02:23:51;;;;;;;20.40;15.13;;;20.40;99.90;;;;;;6273779;22;20015;-84
2023/09/11 02:26:17;;;;;;;22.50;15.10;;;20.40;99.90;;;;;;6274002;22;20011;-83
2023/09/11 02:28:42;;;;;;;18.90;12.45;;;20.30;99.90;;;;;;6274044;22;20011;-83
2023/09/11 02:31:09;;;;;;;24.50;16.95;;;20.30;99.90;;;;;;6272867;22;20026;-83
2023/09/11 02:33:34;;;;;;;15.52;12.52;;;20.30;99.90;;;;;;6248457;22;20019;-83
2023/09/11 02:36:00;;;;;;;20.73;14.38;;;20.30;99.90;;;;;;6301239;22;20038;-83
2023/09/11 02:38:26;;;;;;;23.90;14.18;;;20.30;99.90;;;;;;6274156;22;20044;-83
2023/09/11 02:40:52;;;;;;;16.98;11.75;;;20.30;99.90;;;;;;6248032;22;20069;-83
2023/09/11 02:43:18;;;;;;;22.05;15.00;;;20.20;99.90;;;;;;6248599;22;20473;-83
2023/09/11 02:45:46;;;;;;;21.92;14.93;;;20.20;99.90;;;;;;6273647;22;20011;-83
2023/09/11 02:48:12;;;;;;;24.85;15.40;;;20.20;99.90;;;;;;6273855;22;20069;-83
2023/09/11 02:50:38;;;;;;;20.67;13.77;;;20.20;99.90;;;;;;6273864;22;20019;-83
2023/09/11 02:53:16;;;;;;;19.92;13.63;;;20.20;99.90;;;;;;6247799;22;20023;-83
2023/09/11 02:55:42;;;;;;;15.75;12.20;;;20.10;99.90;;;;;;6248257;22;20018;-83
2023/09/11 02:58:08;;;;;;;16.90;11.98;;;20.10;99.90;;;;;;6247753;22;20050;-83
2023/09/11 03:00:35;;;;;;;19.95;14.65;;;20.10;99.90;;;;;;6299850;22;20017;-83
2023/09/11 03:03:05;;;;;;;16.98;11.02;;;20.10;99.90;;;;;;6272915;22;20026;-82
2023/09/11 03:05:34;;;;;;;18.02;11.75;;;20.10;99.90;;;;;;6300733;22;20011;-83
2023/09/11 03:08:00;;;;;;;13.95;11.23;;;20.10;99.90;;;;;;6301086;22;20015;-82
2023/09/11 03:10:30;;;;;;;16.88;12.40;;;20.10;99.90;;;;;;6272479;22;20018;-83
2023/09/11 03:12:56;;;;;;;26.33;15.70;;;20.10;99.90;;;;;;6247469;22;20445;-83
2023/09/11 03:15:27;;;;;;;21.20;15.73;;;20.10;99.90;;;;;;6246997;22;20030;-82
2023/09/11 03:17:52;;;;;;;14.43;12.90;;;20.10;99.90;;;;;;6300641;22;20011;-82
2023/09/11 03:20:18;;;;;;;12.90;10.65;;;20.10;99.90;;;;;;6272810;22;20015;-83
2023/09/11 03:22:44;;;;;;;20.55;14.77;;;20.00;99.90;;;;;;6272926;22;20437;-83
2023/09/11 03:25:10;;;;;;;22.92;15.48;;;20.00;99.90;;;;;;6247359;22;20015;-82
2023/09/11 03:27:36;;;;;;;22.70;13.15;;;20.00;99.90;;;;;;6272339;22;20120;-83
2023/09/11 03:30:01;;;;;;;13.98;12.15;;;20.00;99.90;;;;;;6272274;22;20022;-82
2023/09/11 03:32:27;;;;;;;23.50;15.48;;;19.90;99.90;;;;;;6247486;22;20011;-82
2023/09/11 03:34:53;;;;;;;19.95;14.88;;;19.90;99.90;;;;;;6273234;22;20041;-82
2023/09/11 03:37:20;;;;;;;22.08;14.05;;;19.90;99.90;;;;;;6273906;22;20023;-82
2023/09/11 03:39:46;;;;;;;22.70;15.30;;;19.90;99.90;;;;;;6272814;22;20080;-82
2023/09/11 03:42:11;;;;;;;20.20;13.43;;;19.80;99.90;;;;;;6272667;22;20019;-82
2023/09/11 03:44:37;;;;;;;17.77;12.93;;;19.80;99.90;;;;;;6247868;22;20015;-82
2023/09/11 03:47:03;;;;;;;20.38;13.15;;;19.80;99.90;;;;;;6273093;22;20022;-82
2023/09/11 03:49:29;;;;;;;24.40;14.35;;;19.80;99.90;;;;;;6300440;22;20047;-82
2023/09/11 03:51:54;;;;;;;19.25;13.30;;;19.80;99.90;;;;;;6272567;22;20023;-82
2023/09/11 03:54:20;;;;;;;18.23;12.45;;;19.80;99.90;;;;;;6273768;22;20033;-83
2023/09/11 03:56:46;;;;;;;17.35;11.85;;;19.80;99.90;;;;;;6299822;22;20102;-82
2023/09/11 03:59:12;;;;;;;17.83;12.35;;;19.80;99.90;;;;;;6300789;22;20007;-82
2023/09/11 04:01:38;;;;;;;17.50;11.43;;;19.70;99.90;;;;;;6273139;22;20023;-83
2023/09/11 04:04:04;;;;;;;23.55;15.35;;;19.70;99.90;;;;;;6272457;22;20414;-82
2023/09/11 04:06:29;;;;;;;23.45;16.67;;;19.70;99.90;;;;;;6273209;22;20019;-82
2023/09/11 04:08:55;;;;;;;17.27;14.02;;;19.70;99.90;;;;;;6273674;22;20022;-82
2023/09/11 04:11:22;;;;;;;15.00;12.57;;;19.70;99.90;;;;;;6247016;22;20016;-82
2023/09/11 04:13:48;;;;;;;23.83;15.27;;;19.70;99.90;;;;;;6272698;22;20447;-82
2023/09/11 04:16:15;;;;;;;17.67;12.70;;;19.70;99.90;;;;;;6272144;22;20120;-82
2023/09/11 04:18:44;;;;;;;18.85;12.50;;;19.70;99.90;;;;;;6273476;22;20011;-82
2023/09/11 04:21:10;;;;;;;16.55;11.85;;;19.60;99.90;;;;;;6273230;22;20465;-82
2023/09/11 04:23:36;;;;;;;24.52;15.02;;;19.70;99.90;;;;;;6300884;22;20011;-82
2023/09/11 04:26:02;;;;;;;25.83;16.60;;;19.60;99.90;;;;;;6300138;22;20008;-82
2023/09/11 04:28:27;;;;;;;28.00;16.60;;;19.60;99.90;;;;;;6273095;22;20011;-82
2023/09/11 04:30:59;;;;;;;20.20;14.23;;;19.60;99.90;;;;;;6299535;22;20450;-82
2023/09/11 04:33:25;;;;;;;24.70;16.35;;;19.60;99.90;;;;;;6273115;22;20026;-82
2023/09/11 04:35:51;;;;;;;22.48;16.05;;;19.60;99.90;;;;;;6272649;22;20019;-82
2023/09/11 04:38:20;;;;;;;17.13;12.30;;;19.50;99.90;;;;;;6300578;22;20010;-82
2023/09/11 04:40:45;;;;;;;18.23;14.70;;;19.50;99.90;;;;;;6271952;22;20511;-81
2023/09/11 04:43:11;;;;;;;22.70;15.43;;;19.50;99.90;;;;;;6273120;22;20043;-82
2023/09/11 04:45:36;;;;;;;24.50;15.88;;;19.50;99.90;;;;;;6300171;22;20018;-82
2023/09/11 04:48:02;;;;;;;26.25;16.90;;;19.50;99.90;;;;;;6272424;22;20047;-82
2023/09/11 04:50:28;;;;;;;20.45;13.98;;;19.50;99.90;;;;;;6273124;22;20018;-82
2023/09/11 04:52:56;;;;;;;21.95;15.68;;;19.40;99.90;;;;;;6298699;22;20027;-82
2023/09/11 04:55:22;;;;;;;24.23;15.90;;;19.40;99.90;;;;;;6271759;22;20011;-82
2023/09/11 04:57:48;;;;;;;26.33;18.55;;;19.40;99.90;;;;;;6248256;22;20085;-82
2023/09/11 05:00:14;;;;;;;20.88;17.35;;;19.40;99.90;;;;;;6273115;22;20496;-82
2023/09/11 05:02:40;;;;;;;26.05;17.67;;;19.40;99.90;;;;;;6273334;22;20022;-82
2023/09/11 05:05:06;;;;;;;19.70;13.77;;;19.40;99.90;;;;;;6300307;22;20061;-82
2023/09/11 05:07:32;;;;;;;21.25;14.82;;;19.40;99.90;;;;;;6275074;22;20015;-82
2023/09/11 05:09:59;;;;;;;16.95;12.82;;;19.30;99.90;;;;;;6273025;22;20082;-82
2023/09/11 05:12:25;;;;;;;15.90;14.18;;;19.30;99.90;;;;;;6249329;22;20042;-84
2023/09/11 05:14:50;;;;;;;16.08;12.23;;;19.30;99.90;;;;;;6300643;22;20493;-78
2023/09/11 05:17:18;;;;;;;20.02;14.77;;;19.30;99.90;;;;;;6302062;22;20046;-78
2023/09/11 05:19:43;;;;;;;20.85;13.20;;;19.30;99.90;;;;;;6274091;22;20058;-78
2023/09/11 05:22:09;;;;;;;20.67;13.73;;;19.30;99.90;;;;;;6274603;22;20388;-78
2023/09/11 05:24:35;;;;;;;25.25;18.38;;;19.30;99.90;;;;;;6301417;22;20021;-79
2023/09/11 05:27:00;;;;;;;25.70;17.33;;;19.30;99.90;;;;;;6273234;22;20061;-79
2023/09/11 05:29:26;;;;;;;29.65;17.02;;;19.30;99.90;;;;;;6274245;22;20019;-79
2023/09/11 05:31:52;;;;;;;22.60;16.85;;;19.30;99.90;;;;;;6274107;22;20098;-79
2023/09/11 05:34:17;;;;;;;21.65;16.08;;;19.20;99.90;;;;;;6302113;22;20046;-79
2023/09/11 05:36:43;;;;;;;20.00;15.02;;;19.20;99.90;;;;;;6273871;22;20015;-77
2023/09/11 05:39:09;;;;;;;17.15;13.90;;;19.20;99.90;;;;;;6301531;22;20011;-82
2023/09/11 05:41:35;;;;;;;16.30;11.95;;;19.20;99.90;;;;;;6274694;22;20019;-77
2023/09/11 05:44:01;;;;;;;29.80;19.40;;;19.30;99.90;;;;;;6300988;22;20042;-78
2023/09/11 05:46:27;;;;;;;27.77;17.70;;;19.30;99.90;;;;;;6274027;22;20011;-77
2023/09/11 05:48:53;;;;;;;21.75;14.63;;;19.30;99.90;;;;;;6301406;22;20018;-78
2023/09/11 05:51:18;;;;;;;15.88;12.27;;;19.30;99.90;;;;;;6274183;22;20346;-78
2023/09/11 05:53:44;;;;;;;23.65;17.55;;;19.30;99.90;;;;;;6273613;22;20012;-78
2023/09/11 05:56:10;;;;;;;20.90;15.27;;;19.30;99.90;;;;;;6273998;22;20015;-77
2023/09/11 05:58:35;;;;;;;19.50;13.52;;;19.30;99.90;;;;;;6274293;22;20017;-77
2023/09/11 06:01:01;;;;;;;21.55;13.70;;;19.30;99.90;;;;;;6273263;22;20007;-77
2023/09/11 06:03:26;;;;;;;21.27;14.75;;;19.30;99.90;;;;;;6300866;22;20058;-77
2023/09/11 06:05:52;;;;;;;29.67;18.20;;;19.30;99.90;;;;;;6273649;22;20015;-77
2023/09/11 06:08:18;;;;;;;25.98;16.02;;;19.40;99.90;;;;;;6272860;22;20019;-77
2023/09/11 06:10:46;;;;;;;27.90;17.67;;;19.40;99.90;;;;;;6300327;22;20007;-90
2023/09/11 06:13:12;;;;;;;27.45;16.85;;;19.40;99.90;;;;;;6273999;22;20381;-82
2023/09/11 06:15:38;;;;;;;23.55;14.50;;;19.40;99.90;;;;;;6273828;22;20061;-79
2023/09/11 06:18:04;;;;;;;28.20;15.95;;;19.50;99.90;;;;;;6271793;22;20015;-80
2023/09/11 06:20:30;;;;;;;29.00;15.82;;;19.50;99.90;;;;;;6271799;22;20015;-81
2023/09/11 06:22:55;;;;;;;28.65;16.42;;;19.50;99.90;;;;;;6272257;22;20084;-84
2023/09/11 06:25:21;;;;;;;32.88;17.00;;;19.50;99.90;;;;;;6299877;22;20011;-84
2023/09/11 06:27:47;;;;;;;30.25;17.40;;;19.60;99.90;;;;;;6273577;22;20454;-83
2023/09/11 06:30:13;;;;;;;34.50;16.92;;;19.60;99.90;;;;;;6301346;22;20011;-83
2023/09/11 06:32:39;;;;;;;22.48;17.23;;;19.70;99.90;;;;;;6248564;22;20012;-83
2023/09/11 06:35:05;;;;;;;28.20;16.92;;;19.70;99.90;;;;;;6273761;22;20039;-84
2023/09/11 06:37:31;;;;;;;34.88;15.25;;;19.80;99.90;;;;;;6248265;22;20579;-83
2023/09/11 06:39:57;;;;;;;31.95;16.45;;;19.80;99.90;;;;;;6300551;22;20007;-83
2023/09/11 06:42:24;;;;;;;30.95;15.88;;;19.90;99.90;;;;;;6273810;22;20044;-82
2023/09/11 06:44:54;;;;;;;32.85;15.93;;;19.90;99.90;;;;;;6273535;22;20442;-83
2023/09/11 06:47:20;;;;;;;27.35;15.73;;;20.00;99.90;;;;;;6300486;22;20022;-82
2023/09/11 06:49:45;;;;;;;32.20;15.90;;;20.10;99.90;;;;;;6301315;22;20007;-83
2023/09/11 06:52:11;;;;;;;27.58;15.15;;;20.20;99.90;;;;;;6301113;22;20091;-82
2023/09/11 06:54:36;;;;;;;24.17;16.20;;;20.30;99.90;;;;;;6301813;22;20019;-82
2023/09/11 06:57:02;;;;;;;29.48;16.63;;;20.50;99.90;;;;;;6272316;22;20341;-82
2023/09/11 06:59:28;;;;;;;30.33;16.85;;;20.50;99.90;;;;;;6299889;22;20401;-82
2023/09/11 07:01:54;;;;;;;25.80;15.45;;;20.70;99.90;;;;;;6299634;22;20019;-85
2023/09/11 07:04:19;;;;;;;30.85;16.95;;;20.70;99.90;;;;;;6272299;22;20065;-85
2023/09/11 07:06:46;;;;;;;28.27;16.52;;;20.80;99.90;;;;;;6270965;22;20068;-86
2023/09/11 07:09:13;;;;;;;33.70;16.23;;;20.90;99.90;;;;;;6247758;22;20014;-86
2023/09/11 07:11:39;;;;;;;29.05;16.48;;;20.90;99.90;;;;;;6273563;22;20011;-85
2023/09/11 07:14:06;;;;;;;27.55;16.35;;;21.00;99.90;;;;;;6248120;22;20030;-86
2023/09/11 07:16:32;;;;;;;27.88;16.55;;;21.00;99.90;;;;;;6273988;22;20015;-85
2023/09/11 07:18:58;;;;;;;24.55;16.92;;;21.10;99.90;;;;;;6273623;22;20015;-84
2023/09/11 07:21:24;;;;;;;30.67;16.60;;;21.20;99.90;;;;;;6301226;22;20011;-90
2023/09/11 07:23:49;;;;;;;30.15;17.35;;;21.20;99.90;;;;;;6274462;22;20065;-90
2023/09/11 07:26:15;;;;;;;24.33;15.73;;;21.20;99.90;;;;;;6275308;22;20084;-91
2023/09/11 07:29:09;;;;;;;29.88;14.70;;;21.30;99.90;;;;;;6275748;22;20018;-89
2023/09/11 07:31:35;;;;;;;28.85;15.98;;;21.40;99.90;;;;;;6275192;22;20326;-89
2023/09/11 07:34:02;;;;;;;24.33;15.77;;;21.30;99.90;;;;;;6301680;22;20482;-90
2023/09/11 07:36:29;;;;;;;27.17;15.13;;;21.40;99.90;;;;;;6302575;22;20042;-89
2023/09/11 07:38:55;;;;;;;21.40;15.10;;;21.50;99.90;;;;;;6274828;22;20114;-89
2023/09/11 07:41:25;;;;;;;22.08;15.38;;;21.50;99.90;;;;;;6275468;22;20012;-89
2023/09/11 07:43:51;;;;;;;25.25;14.80;;;21.60;99.90;;;;;;6302204;22;20440;-89
2023/09/11 07:46:21;;;;;;;31.90;15.93;;;21.60;99.90;;;;;;6274430;22;20019;-89
2023/09/11 07:48:48;;;;;;;28.52;16.05;;;21.70;99.90;;;;;;6300969;22;20019;-90
2023/09/11 07:51:14;;;;;;;26.75;14.38;;;21.80;99.90;;;;;;6302713;22;20041;-89
2023/09/11 07:53:40;;;;;;;26.48;15.07;;;21.90;99.90;;;;;;6302685;22;20025;-90
2023/09/11 07:56:07;;;;;;;23.95;14.13;;;21.90;99.90;;;;;;6302035;22;20015;-90
2023/09/11 07:58:34;;;;;;;24.85;13.10;;;22.00;99.90;;;;;;6249923;22;20019;-89
2023/09/11 08:00:59;;;;;;;23.20;13.88;;;22.10;99.90;;;;;;6274940;22;20011;-89
2023/09/11 08:03:25;;;;;;;24.27;13.27;;;22.20;99.90;;;;;;6249032;22;20090;-89
2023/09/11 08:05:51;;;;;;;23.88;12.98;;;22.30;99.90;;;;;;6302627;22;20084;-89
2023/09/11 08:08:16;;;;;;;20.35;12.20;;;22.40;99.90;;;;;;6274911;22;20397;-89
2023/09/11 08:10:42;;;;;;;25.33;12.90;;;22.40;99.90;;;;;;6274559;22;20034;-89
2023/09/11 08:13:08;;;;;;;22.02;12.23;;;22.50;99.90;;;;;;6274314;22;20018;-89
2023/09/11 08:15:33;;;;;;;18.10;12.32;;;22.60;99.90;;;;;;6302352;22;20018;-90
2023/09/11 08:17:59;;;;;;;20.83;12.07;;;22.70;99.90;;;;;;6301852;22;20016;-89
2023/09/11 08:20:24;;;;;;;19.88;11.80;;;22.70;99.90;;;;;;6249700;22;20027;-89
2023/09/11 08:22:50;;;;;;;22.25;11.30;;;22.80;99.90;;;;;;6302454;22;20434;-89
2023/09/11 08:25:16;;;;;;;18.92;11.90;;;22.90;99.90;;;;;;6274745;22;20442;-89
2023/09/11 08:27:42;;;;;;;20.20;11.18;;;23.00;99.90;;;;;;6275527;22;20019;-89
2023/09/11 08:30:08;;;;;;;18.98;11.68;;;23.00;99.90;;;;;;6275425;22;20011;-89
2023/09/11 08:32:33;;;;;;;18.83;10.50;;;23.10;99.90;;;;;;6276480;22;20178;-89
2023/09/11 08:35:02;;;;;;;22.48;10.15;;;23.20;99.90;;;;;;6277032;22;20399;-90
2023/09/11 08:37:29;;;;;;;19.20;10.57;;;23.30;99.90;;;;;;6251800;22;20251;-89
2023/09/11 08:39:55;;;;;;;21.90;10.23;;;23.40;99.90;;;;;;6250938;22;20022;-90
2023/09/11 08:42:22;;;;;;;20.83;10.02;;;23.50;99.90;;;;;;6277434;22;20082;-90
2023/09/11 08:44:49;;;;;;;18.40;10.18;;;23.50;99.90;;;;;;6250869;22;20086;-90
2023/09/11 08:47:16;;;;;;;20.58;9.55;;;23.60;99.90;;;;;;6276652;22;20019;-89
2023/09/11 08:49:44;;;;;;;18.73;9.13;;;23.60;99.90;;;;;;6277207;22;20014;-90
2023/09/11 08:52:12;;;;;;;19.50;10.00;;;23.70;99.90;;;;;;6251846;22;20159;-89
2023/09/11 08:54:41;;;;;;;17.92;10.20;;;23.80;99.90;;;;;;6277946;22;20014;-90
2023/09/11 08:57:11;;;;;;;27.05;9.63;;;23.90;99.90;;;;;;6305247;22;20012;-89
2023/09/11 08:59:37;;;;;;;21.38;8.90;;;24.00;99.90;;;;;;6278210;22;20068;-89
2023/09/11 09:02:04;;;;;;;18.48;9.02;;;24.10;99.90;;;;;;6304250;22;20735;-89
2023/09/11 09:04:31;;;;;;;16.20;8.95;;;24.20;99.90;;;;;;6278704;22;20427;-90
2023/09/11 09:07:00;;;;;;;14.30;8.60;;;24.40;99.90;;;;;;6304784;22;20019;-90
2023/09/11 09:09:26;;;;;;;16.35;8.48;;;24.50;99.90;;;;;;6278323;22;20017;-89
2023/09/11 09:11:52;;;;;;;18.05;8.20;;;24.60;99.90;;;;;;6305294;22;20019;-89
2023/09/11 09:14:19;;;;;;;18.88;9.18;;;24.80;99.90;;;;;;6277983;22;20012;-89
2023/09/11 09:16:45;;;;;;;15.85;8.55;;;24.90;99.90;;;;;;6251428;22;20019;-90
2023/09/11 09:19:11;;;;;;;17.35;8.38;;;25.10;99.90;;;;;;6252540;22;20011;-90
2023/09/11 09:22:00;;;;;;;16.95;8.82;;;25.20;99.90;;;;;;6277932;22;20393;-90
2023/09/11 09:24:26;;;;;;;19.63;9.15;;;25.40;99.90;;;;;;6252152;22;20026;-91
2023/09/11 09:26:59;;;;;;;17.30;9.35;;;25.50;99.90;;;;;;6304713;22;20457;-89
2023/09/11 09:29:25;;;;;;;22.77;9.33;;;25.60;99.90;;;;;;6305758;22;20544;-89
2023/09/11 09:31:51;;;;;;;17.15;9.10;;;25.70;99.90;;;;;;6276671;22;20473;-90
2023/09/11 09:34:17;;;;;;;14.45;7.95;;;25.80;99.90;;;;;;6277436;22;20011;-89
2023/09/11 09:36:50;;;;;;;18.13;7.90;;;25.90;99.90;;;;;;6305292;22;20014;-89
2023/09/11 09:39:16;;;;;;;21.17;9.97;;;26.10;99.90;;;;;;6277956;22;20090;-90
2023/09/11 09:41:53;;;;;;;15.77;9.50;;;26.20;99.90;;;;;;6277243;22;20043;-89
2023/09/11 09:44:32;;;;;;;17.35;8.25;;;26.30;99.90;;;;;;6277402;22;20438;-90
2023/09/11 09:47:07;;;;;;;16.95;8.88;;;26.40;99.90;;;;;;6305031;22;20050;-89
2023/09/11 09:49:49;;;;;;;16.33;8.88;;;26.50;99.90;;;;;;6277808;22;20084;-90
2023/09/11 09:52:17;;;;;;;23.00;9.07;;;26.60;99.90;;;;;;6277473;22;20076;-90
2023/09/11 09:54:54;;;;;;;15.80;9.25;;;26.70;99.90;;;;;;6277571;22;20050;-90
2023/09/11 09:57:21;;;;;;;13.38;7.40;;;26.80;99.90;;;;;;6305403;22;20030;-89
2023/09/11 09:59:52;;;;;;;14.07;8.55;;;26.80;99.90;;;;;;6276837;22;20431;-89
2023/09/11 10:02:30;;;;;;;12.65;8.15;;;26.90;99.90;;;;;;6277205;22;20082;-89
2023/09/11 10:05:01;;;;;;;15.70;8.00;;;27.00;99.90;;;;;;6251915;22;20007;-89
2023/09/11 10:07:43;;;;;;;15.23;8.85;;;27.00;99.90;;;;;;6277182;22;20011;-90
2023/09/11 10:10:21;;;;;;;14.38;8.27;;;27.20;99.90;;;;;;6252156;22;20014;-90
2023/09/11 10:13:00;;;;;;;13.98;8.43;;;27.20;99.90;;;;;;6251281;22;20011;-89
2023/09/11 10:15:26;;;;;;;16.52;8.45;;;27.30;99.90;;;;;;6251408;22;20022;-90
2023/09/11 10:17:56;;;;;;;13.90;8.48;;;27.40;99.90;;;;;;6277127;22;20033;-89
2023/09/11 10:20:23;;;;;;;14.25;8.02;;;27.50;99.90;;;;;;6251688;22;20026;-89
2023/09/11 10:22:59;;;;;;;15.57;8.77;;;27.50;99.90;;;;;;6277306;22;20062;-89
2023/09/11 10:25:28;;;;;;;13.45;8.07;;;27.60;99.90;;;;;;6277755;22;20520;-89
2023/09/11 10:27:58;;;;;;;16.48;8.52;;;27.70;99.90;;;;;;6251801;22;20451;-90
2023/09/11 10:30:30;;;;;;;13.13;8.30;;;27.70;99.90;;;;;;6277909;22;20018;-89
2023/09/11 10:33:08;;;;;;;16.88;8.65;;;27.80;99.90;;;;;;6250980;22;20077;-90
2023/09/11 10:35:39;;;;;;;17.85;9.43;;;27.90;99.90;;;;;;6277657;22;20015;-89
2023/09/11 10:38:07;;;;;;;14.98;9.40;;;27.90;99.90;;;;;;6277452;22;20094;-90
2023/09/11 10:40:34;;;;;;;15.18;9.10;;;28.00;99.90;;;;;;6252293;22;20086;-89
2023/09/11 10:43:00;;;;;;;17.73;8.85;;;28.00;99.90;;;;;;6304106;22;20011;-89
2023/09/11 10:45:26;;;;;;;17.30;9.30;;;28.00;99.90;;;;;;6251390;22;20442;-89
2023/09/11 10:47:52;;;;;;;19.95;9.23;;;28.10;99.90;;;;;;6276915;22;20017;-89
2023/09/11 10:50:18;;;;;;;16.67;9.48;;;28.20;99.90;;;;;;6277104;22;20011;-90
2023/09/11 10:52:45;;;;;;;15.50;9.00;;;28.20;99.90;;;;;;6277230;22;20469;-89
2023/09/11 10:55:11;;;;;;;12.35;9.48;;;28.30;99.90;;;;;;6276612;22;20015;-89
2023/09/11 10:57:37;;;;;;;10.80;8.20;;;28.40;99.90;;;;;;6277133;22;20007;-89
2023/09/11 11:00:05;;;;;;;13.50;9.15;;;28.40;99.90;;;;;;6276444;22;20011;-90
2023/09/11 11:02:31;;;;;;;17.70;8.60;;;28.50;99.90;;;;;;6276473;22;20011;-88
2023/09/11 11:04:57;;;;;;;12.45;8.80;;;28.50;99.90;;;;;;6276261;22;20113;-89
2023/09/11 11:07:23;;;;;;;13.43;8.35;;;28.50;99.90;;;;;;6303175;22;20011;-90
2023/09/11 11:09:52;;;;;;;15.55;8.73;;;28.60;99.90;;;;;;6302429;22;20072;-90
2023/09/11 11:12:31;;;;;;;12.27;8.02;;;28.70;99.90;;;;;;6275009;22;20012;-89
2023/09/11 11:15:25;;;;;;;16.48;8.60;;;28.70;99.90;;;;;;6249614;22;20007;-90
2023/09/11 11:18:08;;;;;;;12.40;8.98;;;28.80;99.90;;;;;;6302697;22;20004;-90
2023/09/11 11:20:34;;;;;;;16.50;9.77;;;28.90;99.90;;;;;;6275789;22;20039;-90
2023/09/11 11:23:09;;;;;;;13.32;8.88;;;28.90;99.90;;;;;;6249613;22;20050;-89
2023/09/11 11:25:35;;;;;;;16.08;8.65;;;28.90;99.90;;;;;;6275760;22;20026;-89
2023/09/11 11:28:15;;;;;;;16.73;8.70;;;28.90;99.90;;;;;;6274155;22;20455;-95
2023/09/11 11:30:43;;;;;;;19.42;9.13;;;28.90;99.90;;;;;;6276961;22;20019;-95
2023/09/11 11:33:14;;;;;;;14.25;9.77;;;29.00;99.90;;;;;;6278364;22;20466;-95
2023/09/11 11:35:45;;;;;;;14.85;9.13;;;29.10;99.90;;;;;;6274232;22;20025;-87
2023/09/11 11:38:16;;;;;;;14.38;9.73;;;29.10;99.90;;;;;;6274319;22;20015;-93
2023/09/11 11:40:44;;;;;;;14.57;9.32;;;29.20;99.90;;;;;;6303382;22;20030;-88
2023/09/11 11:43:10;;;;;;;15.40;8.63;;;29.30;99.90;;;;;;6274539;22;20510;-86
2023/09/11 11:45:47;;;;;;;14.25;8.25;;;29.30;99.90;;;;;;6252072;22;20043;-88
2023/09/11 11:48:13;;;;;;;15.68;8.88;;;29.20;99.90;;;;;;6243369;22;20038;-86
2023/09/11 11:50:43;;;;;;;13.45;8.30;;;29.20;99.90;;;;;;6218441;22;20043;-86
2023/09/11 11:53:21;;;;;;;11.82;7.80;;;29.20;99.90;;;;;;6243630;22;20047;-86
2023/09/11 11:55:54;;;;;;;14.10;9.68;;;29.20;99.90;;;;;;6242617;22;20016;-86
2023/09/11 11:58:30;;;;;;;15.93;9.40;;;29.20;99.90;;;;;;6218240;22;20026;-87
2023/09/11 12:01:03;;;;;;;12.80;7.93;;;29.20;99.90;;;;;;6218148;22;20020;-86
2023/09/11 12:03:32;;;;;;;12.95;8.35;;;29.20;99.90;;;;;;6244163;22;20012;-87
2023/09/11 12:06:01;;;;;;;13.23;7.75;;;29.30;99.90;;;;;;6245227;22;20027;-87
2023/09/11 12:08:27;;;;;;;15.30;7.28;;;29.30;99.90;;;;;;6245899;22;20450;-88
2023/09/11 12:10:54;;;;;;;11.25;7.05;;;29.30;99.90;;;;;;6245529;22;20054;-87
2023/09/11 12:13:27;;;;;;;9.02;6.53;;;29.40;99.90;;;;;;6244977;22;20015;-85
2023/09/11 12:15:56;;;;;;;15.82;6.82;;;29.40;99.90;;;;;;6245392;22;20008;-87
2023/09/11 12:18:27;;;;;;;10.30;6.40;;;29.50;99.90;;;;;;6221321;22;20343;-87
2023/09/11 12:21:05;;;;;;;11.27;6.82;;;29.60;99.90;;;;;;6246698;22;20011;-86
2023/09/11 12:23:31;;;;;;;9.32;6.40;;;29.60;99.90;;;;;;6273787;22;20023;-88
2023/09/11 12:25:57;;;;;;;12.07;6.53;;;29.60;99.90;;;;;;6245853;22;20021;-87
2023/09/11 12:28:23;;;;;;;14.00;6.43;;;29.60;99.90;;;;;;6246564;22;20019;-88
2023/09/11 12:30:50;;;;;;;11.70;6.13;;;29.60;99.90;;;;;;6246107;22;20073;-89
2023/09/11 12:33:25;;;;;;;12.50;6.72;;;29.70;99.90;;;;;;6246670;22;20058;-91